sensor_id;sensor_type;location;lat;lon;timestamp;P1;durP1;ratioP1;P2;durP2;ratioP2
2720;SDS011;1368;49.484;11.112;2022-09-12T00:00:42;15.60;;;12.80;;
2720;SDS011;1368;49.484;11.112;2022-09-12T00:03:08;13.43;;;12.00;;
2720;SDS011;1368;49.484;11.112;2022-09-12T00:05:35;19.73;;;14.73;;
2720;SDS011;1368;49.484;11.112;2022-09-12T00:08:11;14.63;;;12.07;;
2720;SDS011;1368;49.484;11.112;2022-09-12T00:10:42;20.00;;;14.20;;
2720;SDS011;1368;49.484;11.112;2022-09-12T00:13:08;15.67;;;13.63;;
2720;SDS011;1368;49.484;11.112;2022-09-12T00:15:38;13.07;;;11.67;;
2720;SDS011;1368;49.484;11.112;2022-09-12T00:18:07;14.53;;;13.00;;
2720;SDS011;1368;49.484;11.112;2022-09-12T00:20:34;16.50;;;13.50;;
2720;SDS011;1368;49.484;11.112;2022-09-12T00:23:00;19.33;;;13.60;;
2720;SDS011;1368;49.484;11.112;2022-09-12T00:25:25;16.57;;;13.00;;
2720;SDS011;1368;49.484;11.112;2022-09-12T00:27:51;17.83;;;14.53;;
2720;SDS011;1368;49.484;11.112;2022-09-12T00:30:17;16.23;;;11.30;;
2720;SDS011;1368;49.484;11.112;2022-09-12T00:32:42;12.87;;;11.57;;
2720;SDS011;1368;49.484;11.112;2022-09-12T00:35:08;17.93;;;13.50;;
2720;SDS011;1368;49.484;11.112;2022-09-12T00:37:34;14.03;;;12.37;;
2720;SDS011;1368;49.484;11.112;2022-09-12T00:39:59;14.27;;;11.93;;
2720;SDS011;1368;49.484;11.112;2022-09-12T00:42:25;16.07;;;13.37;;
2720;SDS011;1368;49.484;11.112;2022-09-12T00:44:51;16.33;;;12.50;;
2720;SDS011;1368;49.484;11.112;2022-09-12T00:47:21;14.50;;;12.30;;
2720;SDS011;1368;49.484;11.112;2022-09-12T00:49:51;13.50;;;11.33;;
2720;SDS011;1368;49.484;11.112;2022-09-12T00:52:32;12.00;;;10.70;;
2720;SDS011;1368;49.484;11.112;2022-09-12T00:57:50;14.40;;;11.97;;
2720;SDS011;1368;49.484;11.112;2022-09-12T01:00:25;19.27;;;12.53;;
2720;SDS011;1368;49.484;11.112;2022-09-12T01:03:03;13.70;;;10.90;;
2720;SDS011;1368;49.484;11.112;2022-09-12T01:05:33;13.13;;;10.40;;
2720;SDS011;1368;49.484;11.112;2022-09-12T01:08:01;11.93;;;9.83;;
2720;SDS011;1368;49.484;11.112;2022-09-12T01:10:28;11.63;;;9.37;;
2720;SDS011;1368;49.484;11.112;2022-09-12T01:12:54;12.30;;;10.90;;
2720;SDS011;1368;49.484;11.112;2022-09-12T01:15:21;12.23;;;9.73;;
2720;SDS011;1368;49.484;11.112;2022-09-12T01:20:53;10.17;;;8.70;;
2720;SDS011;1368;49.484;11.112;2022-09-12T01:23:35;11.57;;;9.93;;
2720;SDS011;1368;49.484;11.112;2022-09-12T01:34:23;14.00;;;10.90;;
2720;SDS011;1368;49.484;11.112;2022-09-12T01:36:57;15.83;;;12.10;;
2720;SDS011;1368;49.484;11.112;2022-09-12T01:39:48;15.20;;;10.57;;
2720;SDS011;1368;49.484;11.112;2022-09-12T01:48:04;14.60;;;9.77;;
2720;SDS011;1368;49.484;11.112;2022-09-12T01:50:45;13.70;;;10.03;;
2720;SDS011;1368;49.484;11.112;2022-09-12T01:53:18;16.53;;;12.07;;
2720;SDS011;1368;49.484;11.112;2022-09-12T01:55:48;12.63;;;10.20;;
2720;SDS011;1368;49.484;11.112;2022-09-12T01:59:01;13.43;;;10.27;;
2720;SDS011;1368;49.484;11.112;2022-09-12T02:09:15;9.57;;;8.07;;
2720;SDS011;1368;49.484;11.112;2022-09-12T02:11:47;14.13;;;11.20;;
2720;SDS011;1368;49.484;11.112;2022-09-12T02:14:16;11.77;;;9.30;;
2720;SDS011;1368;49.484;11.112;2022-09-12T02:17:33;10.47;;;9.30;;
2720;SDS011;1368;49.484;11.112;2022-09-12T02:19:44;15.00;;;10.60;;
2720;SDS011;1368;49.484;11.112;2022-09-12T02:22:14;9.10;;;8.17;;
2720;SDS011;1368;49.484;11.112;2022-09-12T02:24:45;14.03;;;10.43;;
2720;SDS011;1368;49.484;11.112;2022-09-12T02:27:15;14.20;;;10.63;;
2720;SDS011;1368;49.484;11.112;2022-09-12T02:29:45;12.97;;;9.87;;
2720;SDS011;1368;49.484;11.112;2022-09-12T02:32:18;11.87;;;9.30;;
2720;SDS011;1368;49.484;11.112;2022-09-12T02:34:58;12.10;;;10.00;;
2720;SDS011;1368;49.484;11.112;2022-09-12T02:40:34;10.87;;;8.63;;
2720;SDS011;1368;49.484;11.112;2022-09-12T02:43:01;12.83;;;10.40;;
2720;SDS011;1368;49.484;11.112;2022-09-12T02:45:28;14.23;;;10.17;;
2720;SDS011;1368;49.484;11.112;2022-09-12T02:50:21;15.37;;;10.07;;
2720;SDS011;1368;49.484;11.112;2022-09-12T02:52:47;13.70;;;9.93;;
2720;SDS011;1368;49.484;11.112;2022-09-12T02:55:14;12.60;;;10.47;;
2720;SDS011;1368;49.484;11.112;2022-09-12T02:57:40;13.00;;;10.30;;
2720;SDS011;1368;49.484;11.112;2022-09-12T03:00:06;12.10;;;9.03;;
2720;SDS011;1368;49.484;11.112;2022-09-12T03:02:43;11.50;;;9.20;;
2720;SDS011;1368;49.484;11.112;2022-09-12T03:17:13;10.67;;;8.70;;
2720;SDS011;1368;49.484;11.112;2022-09-12T03:20:10;12.20;;;8.70;;
2720;SDS011;1368;49.484;11.112;2022-09-12T03:22:58;9.80;;;8.80;;
2720;SDS011;1368;49.484;11.112;2022-09-12T03:28:01;9.43;;;8.23;;
2720;SDS011;1368;49.484;11.112;2022-09-12T03:30:37;7.10;;;6.40;;
2720;SDS011;1368;49.484;11.112;2022-09-12T03:33:14;7.80;;;7.00;;
2720;SDS011;1368;49.484;11.112;2022-09-12T03:35:42;6.97;;;6.27;;
2720;SDS011;1368;49.484;11.112;2022-09-12T03:38:08;8.20;;;7.20;;
2720;SDS011;1368;49.484;11.112;2022-09-12T03:40:34;8.63;;;6.53;;
2720;SDS011;1368;49.484;11.112;2022-09-12T03:43:00;10.27;;;8.47;;
2720;SDS011;1368;49.484;11.112;2022-09-12T03:45:26;7.77;;;6.97;;
2720;SDS011;1368;49.484;11.112;2022-09-12T03:47:52;9.00;;;7.73;;
2720;SDS011;1368;49.484;11.112;2022-09-12T03:50:18;9.30;;;7.50;;
2720;SDS011;1368;49.484;11.112;2022-09-12T03:52:43;8.37;;;7.17;;
2720;SDS011;1368;49.484;11.112;2022-09-12T03:55:09;9.53;;;8.07;;
2720;SDS011;1368;49.484;11.112;2022-09-12T03:57:35;8.60;;;7.50;;
2720;SDS011;1368;49.484;11.112;2022-09-12T04:00:01;8.97;;;7.20;;
2720;SDS011;1368;49.484;11.112;2022-09-12T04:02:27;8.00;;;6.80;;
2720;SDS011;1368;49.484;11.112;2022-09-12T04:04:53;8.90;;;7.13;;
2720;SDS011;1368;49.484;11.112;2022-09-12T04:07:18;9.00;;;6.73;;
2720;SDS011;1368;49.484;11.112;2022-09-12T04:09:44;7.70;;;6.77;;
2720;SDS011;1368;49.484;11.112;2022-09-12T04:12:10;7.90;;;6.77;;
2720;SDS011;1368;49.484;11.112;2022-09-12T04:14:36;6.10;;;5.50;;
2720;SDS011;1368;49.484;11.112;2022-09-12T04:17:02;8.47;;;7.60;;
2720;SDS011;1368;49.484;11.112;2022-09-12T04:19:28;8.27;;;6.70;;
2720;SDS011;1368;49.484;11.112;2022-09-12T04:21:53;6.97;;;6.27;;
2720;SDS011;1368;49.484;11.112;2022-09-12T04:24:19;8.03;;;6.77;;
2720;SDS011;1368;49.484;11.112;2022-09-12T04:26:44;8.30;;;6.13;;
2720;SDS011;1368;49.484;11.112;2022-09-12T04:29:10;9.83;;;7.53;;
2720;SDS011;1368;49.484;11.112;2022-09-12T04:31:36;10.10;;;7.63;;
2720;SDS011;1368;49.484;11.112;2022-09-12T04:34:02;11.87;;;8.03;;
2720;SDS011;1368;49.484;11.112;2022-09-12T04:36:29;10.43;;;8.20;;
2720;SDS011;1368;49.484;11.112;2022-09-12T04:38:56;9.17;;;7.97;;
2720;SDS011;1368;49.484;11.112;2022-09-12T04:41:23;11.27;;;8.87;;
2720;SDS011;1368;49.484;11.112;2022-09-12T04:43:55;15.73;;;8.50;;
2720;SDS011;1368;49.484;11.112;2022-09-12T04:46:32;18.13;;;10.90;;
2720;SDS011;1368;49.484;11.112;2022-09-12T04:49:00;17.90;;;11.20;;
2720;SDS011;1368;49.484;11.112;2022-09-12T04:51:30;18.37;;;11.50;;
2720;SDS011;1368;49.484;11.112;2022-09-12T04:54:02;22.57;;;10.60;;
2720;SDS011;1368;49.484;11.112;2022-09-12T04:56:29;22.33;;;12.13;;
2720;SDS011;1368;49.484;11.112;2022-09-12T04:58:55;20.83;;;11.20;;
2720;SDS011;1368;49.484;11.112;2022-09-12T05:01:22;10.00;;;7.87;;
2720;SDS011;1368;49.484;11.112;2022-09-12T05:03:48;16.23;;;9.17;;
2720;SDS011;1368;49.484;11.112;2022-09-12T05:06:15;14.17;;;10.73;;
2720;SDS011;1368;49.484;11.112;2022-09-12T05:08:43;11.73;;;9.43;;
2720;SDS011;1368;49.484;11.112;2022-09-12T05:11:12;10.93;;;8.90;;
2720;SDS011;1368;49.484;11.112;2022-09-12T05:13:39;10.20;;;8.57;;
2720;SDS011;1368;49.484;11.112;2022-09-12T05:16:05;12.20;;;7.60;;
2720;SDS011;1368;49.484;11.112;2022-09-12T05:18:34;10.37;;;7.80;;
2720;SDS011;1368;49.484;11.112;2022-09-12T05:21:00;9.80;;;6.73;;
2720;SDS011;1368;49.484;11.112;2022-09-12T05:23:28;8.73;;;7.70;;
2720;SDS011;1368;49.484;11.112;2022-09-12T05:25:55;10.47;;;8.60;;
2720;SDS011;1368;49.484;11.112;2022-09-12T05:28:22;9.40;;;7.80;;
2720;SDS011;1368;49.484;11.112;2022-09-12T05:31:05;9.60;;;7.70;;
2720;SDS011;1368;49.484;11.112;2022-09-12T05:33:39;10.63;;;8.23;;
2720;SDS011;1368;49.484;11.112;2022-09-12T05:36:09;10.10;;;7.53;;
2720;SDS011;1368;49.484;11.112;2022-09-12T05:38:36;8.60;;;7.60;;
2720;SDS011;1368;49.484;11.112;2022-09-12T05:41:06;10.83;;;8.27;;
2720;SDS011;1368;49.484;11.112;2022-09-12T05:43:32;8.40;;;7.00;;
2720;SDS011;1368;49.484;11.112;2022-09-12T05:46:02;12.30;;;8.67;;
2720;SDS011;1368;49.484;11.112;2022-09-12T05:48:29;10.50;;;8.40;;
2720;SDS011;1368;49.484;11.112;2022-09-12T05:51:01;16.83;;;8.70;;
2720;SDS011;1368;49.484;11.112;2022-09-12T05:53:29;16.47;;;9.83;;
2720;SDS011;1368;49.484;11.112;2022-09-12T05:56:05;19.60;;;9.50;;
2720;SDS011;1368;49.484;11.112;2022-09-12T05:58:35;19.10;;;9.20;;
2720;SDS011;1368;49.484;11.112;2022-09-12T06:01:03;24.00;;;9.53;;
2720;SDS011;1368;49.484;11.112;2022-09-12T06:03:50;22.90;;;8.00;;
2720;SDS011;1368;49.484;11.112;2022-09-12T06:06:17;19.60;;;9.10;;
2720;SDS011;1368;49.484;11.112;2022-09-12T06:08:45;11.97;;;8.17;;
2720;SDS011;1368;49.484;11.112;2022-09-12T06:11:14;11.07;;;8.47;;
2720;SDS011;1368;49.484;11.112;2022-09-12T06:13:41;9.90;;;7.60;;
2720;SDS011;1368;49.484;11.112;2022-09-12T06:16:17;8.93;;;7.53;;
2720;SDS011;1368;49.484;11.112;2022-09-12T06:18:52;11.80;;;7.70;;
2720;SDS011;1368;49.484;11.112;2022-09-12T06:21:23;13.50;;;8.20;;
2720;SDS011;1368;49.484;11.112;2022-09-12T06:23:50;12.73;;;8.90;;
2720;SDS011;1368;49.484;11.112;2022-09-12T06:26:18;10.07;;;7.87;;
2720;SDS011;1368;49.484;11.112;2022-09-12T06:28:47;10.07;;;7.93;;
2720;SDS011;1368;49.484;11.112;2022-09-12T06:31:18;9.27;;;8.27;;
2720;SDS011;1368;49.484;11.112;2022-09-12T06:33:47;26.80;;;13.10;;
2720;SDS011;1368;49.484;11.112;2022-09-12T06:36:19;29.80;;;15.53;;
2720;SDS011;1368;49.484;11.112;2022-09-12T06:38:45;296.10;;;41.70;;
2720;SDS011;1368;49.484;11.112;2022-09-12T06:41:12;109.70;;;24.40;;
2720;SDS011;1368;49.484;11.112;2022-09-12T06:43:38;156.37;;;33.53;;
2720;SDS011;1368;49.484;11.112;2022-09-12T06:46:05;76.73;;;28.70;;
2720;SDS011;1368;49.484;11.112;2022-09-12T06:48:31;76.47;;;30.10;;
2720;SDS011;1368;49.484;11.112;2022-09-12T06:50:58;45.93;;;22.60;;
2720;SDS011;1368;49.484;11.112;2022-09-12T06:53:31;39.67;;;16.60;;
2720;SDS011;1368;49.484;11.112;2022-09-12T06:56:05;71.23;;;19.70;;
2720;SDS011;1368;49.484;11.112;2022-09-12T06:58:33;54.30;;;15.00;;
2720;SDS011;1368;49.484;11.112;2022-09-12T07:01:03;147.53;;;26.30;;
2720;SDS011;1368;49.484;11.112;2022-09-12T07:03:37;84.80;;;19.10;;
2720;SDS011;1368;49.484;11.112;2022-09-12T07:06:04;117.03;;;19.10;;
2720;SDS011;1368;49.484;11.112;2022-09-12T07:08:31;83.10;;;20.63;;
2720;SDS011;1368;49.484;11.112;2022-09-12T07:10:58;31.63;;;14.30;;
2720;SDS011;1368;49.484;11.112;2022-09-12T07:13:32;71.53;;;19.20;;
2720;SDS011;1368;49.484;11.112;2022-09-12T07:16:00;96.17;;;18.57;;
2720;SDS011;1368;49.484;11.112;2022-09-12T07:18:26;102.17;;;25.43;;
2720;SDS011;1368;49.484;11.112;2022-09-12T07:20:53;37.47;;;16.10;;
2720;SDS011;1368;49.484;11.112;2022-09-12T07:23:19;18.20;;;14.03;;
2720;SDS011;1368;49.484;11.112;2022-09-12T07:25:50;45.90;;;15.70;;
2720;SDS011;1368;49.484;11.112;2022-09-12T07:28:17;102.10;;;14.93;;
2720;SDS011;1368;49.484;11.112;2022-09-12T07:30:43;99.60;;;20.73;;
2720;SDS011;1368;49.484;11.112;2022-09-12T07:33:08;40.83;;;18.30;;
2720;SDS011;1368;49.484;11.112;2022-09-12T07:35:34;31.70;;;14.43;;
2720;SDS011;1368;49.484;11.112;2022-09-12T07:38:00;18.07;;;13.67;;
2720;SDS011;1368;49.484;11.112;2022-09-12T07:40:26;34.90;;;12.80;;
2720;SDS011;1368;49.484;11.112;2022-09-12T07:42:51;20.37;;;14.33;;
2720;SDS011;1368;49.484;11.112;2022-09-12T07:45:17;20.87;;;12.67;;
2720;SDS011;1368;49.484;11.112;2022-09-12T07:47:42;15.93;;;12.90;;
2720;SDS011;1368;49.484;11.112;2022-09-12T07:50:08;22.93;;;14.00;;
2720;SDS011;1368;49.484;11.112;2022-09-12T07:52:34;11.70;;;10.50;;
2720;SDS011;1368;49.484;11.112;2022-09-12T07:54:59;12.63;;;10.83;;
2720;SDS011;1368;49.484;11.112;2022-09-12T07:57:25;12.27;;;10.80;;
2720;SDS011;1368;49.484;11.112;2022-09-12T07:59:50;12.80;;;10.20;;
2720;SDS011;1368;49.484;11.112;2022-09-12T08:02:16;15.27;;;10.57;;
2720;SDS011;1368;49.484;11.112;2022-09-12T08:04:41;11.10;;;10.03;;
2720;SDS011;1368;49.484;11.112;2022-09-12T08:07:08;11.30;;;10.20;;
2720;SDS011;1368;49.484;11.112;2022-09-12T08:09:34;9.93;;;8.70;;
2720;SDS011;1368;49.484;11.112;2022-09-12T08:12:00;10.13;;;9.13;;
2720;SDS011;1368;49.484;11.112;2022-09-12T08:14:26;12.03;;;10.73;;
2720;SDS011;1368;49.484;11.112;2022-09-12T08:16:52;10.53;;;9.43;;
2720;SDS011;1368;49.484;11.112;2022-09-12T08:19:17;11.07;;;9.97;;
2720;SDS011;1368;49.484;11.112;2022-09-12T08:21:43;12.90;;;11.57;;
2720;SDS011;1368;49.484;11.112;2022-09-12T08:24:09;11.60;;;10.40;;
2720;SDS011;1368;49.484;11.112;2022-09-12T08:26:39;11.07;;;10.00;;
2720;SDS011;1368;49.484;11.112;2022-09-12T08:29:05;9.63;;;8.63;;
2720;SDS011;1368;49.484;11.112;2022-09-12T08:31:30;10.83;;;9.83;;
2720;SDS011;1368;49.484;11.112;2022-09-12T08:34:00;10.73;;;9.73;;
2720;SDS011;1368;49.484;11.112;2022-09-12T08:36:28;13.10;;;11.90;;
2720;SDS011;1368;49.484;11.112;2022-09-12T08:38:54;11.90;;;10.77;;
2720;SDS011;1368;49.484;11.112;2022-09-12T08:49:17;11.20;;;10.10;;
2720;SDS011;1368;49.484;11.112;2022-09-12T08:51:58;11.07;;;10.07;;
2720;SDS011;1368;49.484;11.112;2022-09-12T08:54:29;10.07;;;9.10;;
2720;SDS011;1368;49.484;11.112;2022-09-12T08:56:57;10.27;;;9.27;;
2720;SDS011;1368;49.484;11.112;2022-09-12T08:59:28;10.27;;;9.27;;
2720;SDS011;1368;49.484;11.112;2022-09-12T09:05:00;12.43;;;9.10;;
2720;SDS011;1368;49.484;11.112;2022-09-12T09:13:11;9.53;;;8.00;;
2720;SDS011;1368;49.484;11.112;2022-09-12T09:16:18;9.93;;;9.00;;
2720;SDS011;1368;49.484;11.112;2022-09-12T09:18:51;7.90;;;7.20;;
2720;SDS011;1368;49.484;11.112;2022-09-12T09:23:59;8.13;;;7.43;;
2720;SDS011;1368;49.484;11.112;2022-09-12T09:26:34;8.20;;;7.47;;
2720;SDS011;1368;49.484;11.112;2022-09-12T09:29:17;6.67;;;5.80;;
2720;SDS011;1368;49.484;11.112;2022-09-12T09:31:46;8.20;;;7.33;;
2720;SDS011;1368;49.484;11.112;2022-09-12T09:34:20;8.40;;;7.03;;
2720;SDS011;1368;49.484;11.112;2022-09-12T09:36:48;10.53;;;6.83;;
2720;SDS011;1368;49.484;11.112;2022-09-12T09:42:16;6.60;;;5.90;;
2720;SDS011;1368;49.484;11.112;2022-09-12T09:45:09;5.77;;;5.17;;
2720;SDS011;1368;49.484;11.112;2022-09-12T09:47:45;5.03;;;4.53;;
2720;SDS011;1368;49.484;11.112;2022-09-12T09:50:17;6.60;;;6.00;;
2720;SDS011;1368;49.484;11.112;2022-09-12T09:52:43;6.67;;;6.07;;
2720;SDS011;1368;49.484;11.112;2022-09-12T09:55:11;7.13;;;6.20;;
2720;SDS011;1368;49.484;11.112;2022-09-12T09:57:42;6.47;;;5.80;;
2720;SDS011;1368;49.484;11.112;2022-09-12T10:08:21;6.53;;;5.90;;
2720;SDS011;1368;49.484;11.112;2022-09-12T10:11:16;5.50;;;5.00;;
2720;SDS011;1368;49.484;11.112;2022-09-12T10:16:21;5.93;;;5.07;;
2720;SDS011;1368;49.484;11.112;2022-09-12T10:18:49;4.87;;;4.37;;
2720;SDS011;1368;49.484;11.112;2022-09-12T10:23:45;5.67;;;4.77;;
2720;SDS011;1368;49.484;11.112;2022-09-12T10:26:12;5.73;;;5.20;;
2720;SDS011;1368;49.484;11.112;2022-09-12T10:28:48;8.23;;;6.70;;
2720;SDS011;1368;49.484;11.112;2022-09-12T10:32:18;5.47;;;4.87;;
2720;SDS011;1368;49.484;11.112;2022-09-12T10:34:22;5.30;;;4.80;;
2720;SDS011;1368;49.484;11.112;2022-09-12T10:36:59;6.10;;;5.50;;
2720;SDS011;1368;49.484;11.112;2022-09-12T10:39:28;6.20;;;5.17;;
2720;SDS011;1368;49.484;11.112;2022-09-12T10:41:55;5.93;;;5.37;;
2720;SDS011;1368;49.484;11.112;2022-09-12T10:44:25;6.33;;;5.70;;
2720;SDS011;1368;49.484;11.112;2022-09-12T10:46:55;6.50;;;5.90;;
2720;SDS011;1368;49.484;11.112;2022-09-12T10:49:31;7.10;;;5.90;;
2720;SDS011;1368;49.484;11.112;2022-09-12T10:52:17;5.73;;;5.17;;
2720;SDS011;1368;49.484;11.112;2022-09-12T10:54:49;6.33;;;5.00;;
2720;SDS011;1368;49.484;11.112;2022-09-12T11:00:02;6.33;;;5.73;;
2720;SDS011;1368;49.484;11.112;2022-09-12T11:02:44;6.30;;;5.70;;
2720;SDS011;1368;49.484;11.112;2022-09-12T11:22:03;7.03;;;5.67;;
2720;SDS011;1368;49.484;11.112;2022-09-12T11:25:03;8.03;;;5.70;;
2720;SDS011;1368;49.484;11.112;2022-09-12T11:30:15;10.87;;;6.57;;
2720;SDS011;1368;49.484;11.112;2022-09-12T11:32:45;8.03;;;5.90;;
2720;SDS011;1368;49.484;11.112;2022-09-12T11:43:08;6.73;;;5.93;;
2720;SDS011;1368;49.484;11.112;2022-09-12T11:45:44;6.13;;;5.53;;
2720;SDS011;1368;49.484;11.112;2022-09-12T11:48:14;7.30;;;6.60;;
2720;SDS011;1368;49.484;11.112;2022-09-12T11:50:56;5.70;;;5.20;;
2720;SDS011;1368;49.484;11.112;2022-09-12T11:53:27;10.83;;;5.70;;
2720;SDS011;1368;49.484;11.112;2022-09-12T11:56:01;6.30;;;5.70;;
2720;SDS011;1368;49.484;11.112;2022-09-12T11:58:33;5.63;;;4.80;;
2720;SDS011;1368;49.484;11.112;2022-09-12T12:01:11;6.77;;;5.77;;
2720;SDS011;1368;49.484;11.112;2022-09-12T12:03:43;7.20;;;5.80;;
2720;SDS011;1368;49.484;11.112;2022-09-12T12:06:12;9.30;;;6.50;;
2720;SDS011;1368;49.484;11.112;2022-09-12T12:08:49;7.27;;;5.40;;
2720;SDS011;1368;49.484;11.112;2022-09-12T12:11:26;9.03;;;6.23;;
2720;SDS011;1368;49.484;11.112;2022-09-12T12:16:30;7.00;;;6.30;;
2720;SDS011;1368;49.484;11.112;2022-09-12T12:18:59;6.73;;;5.13;;
2720;SDS011;1368;49.484;11.112;2022-09-12T12:47:38;7.10;;;5.87;;
2720;SDS011;1368;49.484;11.112;2022-09-12T12:55:24;5.83;;;5.03;;
2720;SDS011;1368;49.484;11.112;2022-09-12T12:57:54;6.57;;;4.97;;
2720;SDS011;1368;49.484;11.112;2022-09-12T13:03:09;5.83;;;5.23;;
2720;SDS011;1368;49.484;11.112;2022-09-12T13:05:53;6.17;;;5.47;;
2720;SDS011;1368;49.484;11.112;2022-09-12T13:08:27;10.23;;;5.40;;
2720;SDS011;1368;49.484;11.112;2022-09-12T13:11:13;7.50;;;5.83;;
2720;SDS011;1368;49.484;11.112;2022-09-12T13:13:51;6.03;;;5.10;;
2720;SDS011;1368;49.484;11.112;2022-09-12T13:19:00;7.90;;;5.67;;
2720;SDS011;1368;49.484;11.112;2022-09-12T13:21:29;5.73;;;5.23;;
2720;SDS011;1368;49.484;11.112;2022-09-12T13:23:57;5.80;;;5.13;;
2720;SDS011;1368;49.484;11.112;2022-09-12T13:26:43;6.20;;;5.53;;
2720;SDS011;1368;49.484;11.112;2022-09-12T13:29:13;7.17;;;5.63;;
2720;SDS011;1368;49.484;11.112;2022-09-12T13:31:41;7.60;;;5.70;;
2720;SDS011;1368;49.484;11.112;2022-09-12T13:34:09;5.53;;;5.00;;
2720;SDS011;1368;49.484;11.112;2022-09-12T13:39:25;9.43;;;5.57;;
2720;SDS011;1368;49.484;11.112;2022-09-12T13:41:59;6.50;;;5.33;;
2720;SDS011;1368;49.484;11.112;2022-09-12T13:44:55;7.10;;;5.83;;
2720;SDS011;1368;49.484;11.112;2022-09-12T13:47:31;6.70;;;6.03;;
2720;SDS011;1368;49.484;11.112;2022-09-12T13:50:04;6.40;;;5.37;;
2720;SDS011;1368;49.484;11.112;2022-09-12T13:52:32;7.10;;;6.20;;
2720;SDS011;1368;49.484;11.112;2022-09-12T13:55:04;6.50;;;5.80;;
2720;SDS011;1368;49.484;11.112;2022-09-12T13:57:37;7.57;;;5.40;;
2720;SDS011;1368;49.484;11.112;2022-09-12T14:02:44;6.83;;;5.90;;
2720;SDS011;1368;49.484;11.112;2022-09-12T14:05:21;6.40;;;5.53;;
2720;SDS011;1368;49.484;11.112;2022-09-12T14:07:59;8.53;;;5.97;;
2720;SDS011;1368;49.484;11.112;2022-09-12T14:10:31;6.30;;;5.50;;
2720;SDS011;1368;49.484;11.112;2022-09-12T14:13:00;5.60;;;4.80;;
2720;SDS011;1368;49.484;11.112;2022-09-12T14:15:29;6.30;;;5.70;;
2720;SDS011;1368;49.484;11.112;2022-09-12T14:17:58;5.87;;;5.27;;
2720;SDS011;1368;49.484;11.112;2022-09-12T14:20:25;8.03;;;5.97;;
2720;SDS011;1368;49.484;11.112;2022-09-12T14:22:57;7.13;;;6.43;;
2720;SDS011;1368;49.484;11.112;2022-09-12T14:25:29;5.90;;;5.37;;
2720;SDS011;1368;49.484;11.112;2022-09-12T14:28:01;6.27;;;5.67;;
2720;SDS011;1368;49.484;11.112;2022-09-12T14:30:28;6.60;;;5.30;;
2720;SDS011;1368;49.484;11.112;2022-09-12T14:35:37;6.40;;;5.30;;
2720;SDS011;1368;49.484;11.112;2022-09-12T14:38:07;6.20;;;5.60;;
2720;SDS011;1368;49.484;11.112;2022-09-12T14:41:19;8.10;;;6.60;;
2720;SDS011;1368;49.484;11.112;2022-09-12T14:43:30;6.30;;;5.70;;
2720;SDS011;1368;49.484;11.112;2022-09-12T14:46:00;6.77;;;5.97;;
2720;SDS011;1368;49.484;11.112;2022-09-12T14:48:28;7.70;;;5.63;;
2720;SDS011;1368;49.484;11.112;2022-09-12T14:50:56;8.90;;;5.93;;
2720;SDS011;1368;49.484;11.112;2022-09-12T14:53:35;5.40;;;4.70;;
2720;SDS011;1368;49.484;11.112;2022-09-12T14:56:06;7.33;;;6.47;;
2720;SDS011;1368;49.484;11.112;2022-09-12T14:58:32;8.00;;;6.00;;
2720;SDS011;1368;49.484;11.112;2022-09-12T15:03:31;5.97;;;5.37;;
2720;SDS011;1368;49.484;11.112;2022-09-12T15:06:30;7.20;;;5.60;;
2720;SDS011;1368;49.484;11.112;2022-09-12T15:09:02;5.63;;;5.07;;
2720;SDS011;1368;49.484;11.112;2022-09-12T15:11:32;7.23;;;6.47;;
2720;SDS011;1368;49.484;11.112;2022-09-12T15:14:05;6.80;;;6.00;;
2720;SDS011;1368;49.484;11.112;2022-09-12T15:16:36;7.00;;;6.17;;
2720;SDS011;1368;49.484;11.112;2022-09-12T15:19:01;6.07;;;5.27;;
2720;SDS011;1368;49.484;11.112;2022-09-12T15:21:27;9.03;;;5.20;;
2720;SDS011;1368;49.484;11.112;2022-09-12T15:23:52;7.80;;;5.23;;
2720;SDS011;1368;49.484;11.112;2022-09-12T15:26:19;7.30;;;6.07;;
2720;SDS011;1368;49.484;11.112;2022-09-12T15:28:46;8.50;;;5.60;;
2720;SDS011;1368;49.484;11.112;2022-09-12T15:31:14;6.57;;;5.07;;
2720;SDS011;1368;49.484;11.112;2022-09-12T15:33:48;5.80;;;5.20;;
2720;SDS011;1368;49.484;11.112;2022-09-12T15:36:15;6.43;;;5.73;;
2720;SDS011;1368;49.484;11.112;2022-09-12T15:38:44;6.67;;;5.93;;
2720;SDS011;1368;49.484;11.112;2022-09-12T15:41:12;6.43;;;5.83;;
2720;SDS011;1368;49.484;11.112;2022-09-12T15:43:50;7.00;;;5.80;;
2720;SDS011;1368;49.484;11.112;2022-09-12T15:46:16;7.07;;;5.70;;
2720;SDS011;1368;49.484;11.112;2022-09-12T15:48:43;7.30;;;6.10;;
2720;SDS011;1368;49.484;11.112;2022-09-12T15:51:18;7.70;;;6.60;;
2720;SDS011;1368;49.484;11.112;2022-09-12T15:53:45;7.83;;;6.20;;
2720;SDS011;1368;49.484;11.112;2022-09-12T15:56:16;11.67;;;6.73;;
2720;SDS011;1368;49.484;11.112;2022-09-12T15:58:42;7.80;;;5.77;;
2720;SDS011;1368;49.484;11.112;2022-09-12T16:01:11;6.63;;;5.43;;
2720;SDS011;1368;49.484;11.112;2022-09-12T16:03:38;8.00;;;5.90;;
2720;SDS011;1368;49.484;11.112;2022-09-12T16:06:04;7.00;;;5.43;;
2720;SDS011;1368;49.484;11.112;2022-09-12T16:08:31;6.17;;;5.57;;
2720;SDS011;1368;49.484;11.112;2022-09-12T16:10:59;6.97;;;6.27;;
2720;SDS011;1368;49.484;11.112;2022-09-12T16:13:29;9.10;;;5.83;;
2720;SDS011;1368;49.484;11.112;2022-09-12T16:15:55;6.10;;;5.50;;
2720;SDS011;1368;49.484;11.112;2022-09-12T16:18:21;5.63;;;5.13;;
2720;SDS011;1368;49.484;11.112;2022-09-12T16:20:50;6.57;;;5.60;;
2720;SDS011;1368;49.484;11.112;2022-09-12T16:23:17;7.60;;;6.33;;
2720;SDS011;1368;49.484;11.112;2022-09-12T16:25:42;13.87;;;7.07;;
2720;SDS011;1368;49.484;11.112;2022-09-12T16:28:08;7.20;;;5.70;;
2720;SDS011;1368;49.484;11.112;2022-09-12T16:30:34;7.53;;;6.00;;
2720;SDS011;1368;49.484;11.112;2022-09-12T16:33:00;8.07;;;5.90;;
2720;SDS011;1368;49.484;11.112;2022-09-12T16:35:25;7.60;;;6.30;;
2720;SDS011;1368;49.484;11.112;2022-09-12T16:37:52;6.73;;;6.03;;
2720;SDS011;1368;49.484;11.112;2022-09-12T16:40:17;7.80;;;6.60;;
2720;SDS011;1368;49.484;11.112;2022-09-12T16:42:46;7.33;;;6.57;;
2720;SDS011;1368;49.484;11.112;2022-09-12T16:45:12;6.93;;;6.10;;
2720;SDS011;1368;49.484;11.112;2022-09-12T16:47:37;7.07;;;5.90;;
2720;SDS011;1368;49.484;11.112;2022-09-12T16:50:03;5.60;;;5.10;;
2720;SDS011;1368;49.484;11.112;2022-09-12T16:52:30;7.53;;;6.13;;
2720;SDS011;1368;49.484;11.112;2022-09-12T16:54:58;8.10;;;6.30;;
2720;SDS011;1368;49.484;11.112;2022-09-12T16:57:23;6.60;;;5.90;;
2720;SDS011;1368;49.484;11.112;2022-09-12T16:59:49;7.47;;;5.90;;
2720;SDS011;1368;49.484;11.112;2022-09-12T17:02:14;7.40;;;5.27;;
2720;SDS011;1368;49.484;11.112;2022-09-12T17:04:40;7.60;;;6.10;;
2720;SDS011;1368;49.484;11.112;2022-09-12T17:07:06;6.67;;;5.97;;
2720;SDS011;1368;49.484;11.112;2022-09-12T17:09:32;6.47;;;5.77;;
2720;SDS011;1368;49.484;11.112;2022-09-12T17:11:58;6.03;;;5.20;;
2720;SDS011;1368;49.484;11.112;2022-09-12T17:14:24;6.57;;;5.87;;
2720;SDS011;1368;49.484;11.112;2022-09-12T17:16:50;6.37;;;5.70;;
2720;SDS011;1368;49.484;11.112;2022-09-12T17:19:22;7.77;;;5.97;;
2720;SDS011;1368;49.484;11.112;2022-09-12T17:21:50;5.93;;;4.83;;
2720;SDS011;1368;49.484;11.112;2022-09-12T17:24:17;7.60;;;5.60;;
2720;SDS011;1368;49.484;11.112;2022-09-12T17:26:43;5.87;;;5.27;;
2720;SDS011;1368;49.484;11.112;2022-09-12T17:29:10;7.50;;;6.40;;
2720;SDS011;1368;49.484;11.112;2022-09-12T17:31:37;8.30;;;6.33;;
2720;SDS011;1368;49.484;11.112;2022-09-12T17:34:03;8.73;;;5.97;;
2720;SDS011;1368;49.484;11.112;2022-09-12T17:36:29;7.33;;;5.67;;
2720;SDS011;1368;49.484;11.112;2022-09-12T17:38:56;10.50;;;6.07;;
2720;SDS011;1368;49.484;11.112;2022-09-12T17:41:23;9.27;;;6.90;;
2720;SDS011;1368;49.484;11.112;2022-09-12T17:43:52;6.47;;;5.80;;
2720;SDS011;1368;49.484;11.112;2022-09-12T17:46:20;8.80;;;7.40;;
2720;SDS011;1368;49.484;11.112;2022-09-12T17:48:54;7.97;;;5.97;;
2720;SDS011;1368;49.484;11.112;2022-09-12T17:51:21;9.77;;;6.60;;